sensor_id;sensor_type;location;lat;lon;timestamp;P1;durP1;ratioP1;P2;durP2;ratioP2
21868;SDS011;11099;41.564;23.296;2023-04-10T00:00:56;13.68;;;11.30;;
21868;SDS011;11099;41.564;23.296;2023-04-10T00:03:23;14.88;;;11.52;;
21868;SDS011;11099;41.564;23.296;2023-04-10T00:05:48;13.13;;;11.20;;
21868;SDS011;11099;41.564;23.296;2023-04-10T00:08:13;16.80;;;11.15;;
21868;SDS011;11099;41.564;23.296;2023-04-10T00:10:39;13.52;;;11.50;;
21868;SDS011;11099;41.564;23.296;2023-04-10T00:13:05;13.75;;;11.38;;
21868;SDS011;11099;41.564;23.296;2023-04-10T00:15:30;14.27;;;11.63;;
21868;SDS011;11099;41.564;23.296;2023-04-10T00:17:55;16.15;;;11.70;;
21868;SDS011;11099;41.564;23.296;2023-04-10T00:20:21;14.02;;;11.93;;
21868;SDS011;11099;41.564;23.296;2023-04-10T00:22:47;15.05;;;12.23;;
21868;SDS011;11099;41.564;23.296;2023-04-10T00:25:12;15.43;;;12.27;;
21868;SDS011;11099;41.564;23.296;2023-04-10T00:27:37;15.80;;;11.95;;
21868;SDS011;11099;41.564;23.296;2023-04-10T00:30:03;19.05;;;12.00;;
21868;SDS011;11099;41.564;23.296;2023-04-10T00:32:29;15.32;;;12.13;;
21868;SDS011;11099;41.564;23.296;2023-04-10T00:34:54;15.07;;;12.15;;
21868;SDS011;11099;41.564;23.296;2023-04-10T00:37:19;13.93;;;11.55;;
21868;SDS011;11099;41.564;23.296;2023-04-10T00:39:45;14.45;;;11.60;;
21868;SDS011;11099;41.564;23.296;2023-04-10T00:42:10;13.45;;;11.55;;
21868;SDS011;11099;41.564;23.296;2023-04-10T00:44:36;13.32;;;10.38;;
21868;SDS011;11099;41.564;23.296;2023-04-10T00:47:04;13.27;;;11.07;;
21868;SDS011;11099;41.564;23.296;2023-04-10T00:49:30;13.60;;;11.13;;
21868;SDS011;11099;41.564;23.296;2023-04-10T00:51:55;13.68;;;10.82;;
21868;SDS011;11099;41.564;23.296;2023-04-10T00:54:21;11.10;;;10.00;;
21868;SDS011;11099;41.564;23.296;2023-04-10T00:56:46;10.00;;;9.00;;
21868;SDS011;11099;41.564;23.296;2023-04-10T00:59:13;10.98;;;9.40;;
21868;SDS011;11099;41.564;23.296;2023-04-10T01:01:38;10.88;;;9.02;;
21868;SDS011;11099;41.564;23.296;2023-04-10T01:04:04;10.40;;;9.27;;
21868;SDS011;11099;41.564;23.296;2023-04-10T01:11:43;11.93;;;8.93;;
21868;SDS011;11099;41.564;23.296;2023-04-10T01:16:57;9.60;;;8.50;;
21868;SDS011;11099;41.564;23.296;2023-04-10T01:21:52;12.82;;;10.10;;
21868;SDS011;11099;41.564;23.296;2023-04-10T01:29:28;12.82;;;11.23;;
21868;SDS011;11099;41.564;23.296;2023-04-10T01:34:21;13.40;;;11.65;;
21868;SDS011;11099;41.564;23.296;2023-04-10T01:36:49;13.43;;;11.23;;
21868;SDS011;11099;41.564;23.296;2023-04-10T01:39:19;15.07;;;12.27;;
21868;SDS011;11099;41.564;23.296;2023-04-10T01:41:45;16.75;;;13.50;;
21868;SDS011;11099;41.564;23.296;2023-04-10T01:44:12;16.27;;;13.23;;
21868;SDS011;11099;41.564;23.296;2023-04-10T01:46:39;14.80;;;12.18;;
21868;SDS011;11099;41.564;23.296;2023-04-10T01:49:04;15.20;;;12.50;;
21868;SDS011;11099;41.564;23.296;2023-04-10T01:51:30;16.92;;;13.07;;
21868;SDS011;11099;41.564;23.296;2023-04-10T01:53:57;15.65;;;13.10;;
21868;SDS011;11099;41.564;23.296;2023-04-10T01:56:22;19.58;;;15.25;;
21868;SDS011;11099;41.564;23.296;2023-04-10T01:58:47;17.85;;;13.80;;
21868;SDS011;11099;41.564;23.296;2023-04-10T02:01:19;17.70;;;14.20;;
21868;SDS011;11099;41.564;23.296;2023-04-10T02:03:45;16.77;;;13.35;;
21868;SDS011;11099;41.564;23.296;2023-04-10T02:08:41;15.77;;;13.40;;
21868;SDS011;11099;41.564;23.296;2023-04-10T02:11:12;15.85;;;13.40;;
21868;SDS011;11099;41.564;23.296;2023-04-10T02:13:39;18.27;;;15.50;;
21868;SDS011;11099;41.564;23.296;2023-04-10T02:16:06;20.35;;;15.13;;
21868;SDS011;11099;41.564;23.296;2023-04-10T02:18:33;18.52;;;14.20;;
21868;SDS011;11099;41.564;23.296;2023-04-10T02:20:59;16.75;;;14.25;;
21868;SDS011;11099;41.564;23.296;2023-04-10T02:23:25;19.00;;;15.27;;
21868;SDS011;11099;41.564;23.296;2023-04-10T02:25:50;19.88;;;16.08;;
21868;SDS011;11099;41.564;23.296;2023-04-10T02:28:15;20.25;;;16.33;;
21868;SDS011;11099;41.564;23.296;2023-04-10T02:30:41;17.63;;;14.32;;
21868;SDS011;11099;41.564;23.296;2023-04-10T02:33:06;16.08;;;12.68;;
21868;SDS011;11099;41.564;23.296;2023-04-10T02:35:32;15.57;;;12.98;;
21868;SDS011;11099;41.564;23.296;2023-04-10T02:37:57;17.08;;;12.45;;
21868;SDS011;11099;41.564;23.296;2023-04-10T02:40:23;16.42;;;13.73;;
21868;SDS011;11099;41.564;23.296;2023-04-10T02:42:48;14.13;;;11.77;;
21868;SDS011;11099;41.564;23.296;2023-04-10T02:45:13;13.30;;;11.38;;
21868;SDS011;11099;41.564;23.296;2023-04-10T02:47:39;12.93;;;10.40;;
21868;SDS011;11099;41.564;23.296;2023-04-10T02:50:04;12.50;;;11.20;;
21868;SDS011;11099;41.564;23.296;2023-04-10T02:52:30;12.52;;;10.60;;
21868;SDS011;11099;41.564;23.296;2023-04-10T02:54:55;13.70;;;11.15;;
21868;SDS011;11099;41.564;23.296;2023-04-10T02:57:21;12.13;;;10.35;;
21868;SDS011;11099;41.564;23.296;2023-04-10T02:59:48;12.98;;;11.02;;
21868;SDS011;11099;41.564;23.296;2023-04-10T03:02:14;12.75;;;10.95;;
21868;SDS011;11099;41.564;23.296;2023-04-10T03:04:39;12.60;;;11.18;;
21868;SDS011;11099;41.564;23.296;2023-04-10T03:07:05;12.80;;;10.80;;
21868;SDS011;11099;41.564;23.296;2023-04-10T03:09:30;13.30;;;10.70;;
21868;SDS011;11099;41.564;23.296;2023-04-10T03:11:55;12.75;;;10.70;;
21868;SDS011;11099;41.564;23.296;2023-04-10T03:14:21;13.55;;;11.35;;
21868;SDS011;11099;41.564;23.296;2023-04-10T03:16:47;12.25;;;9.85;;
21868;SDS011;11099;41.564;23.296;2023-04-10T03:19:13;12.07;;;10.75;;
21868;SDS011;11099;41.564;23.296;2023-04-10T03:21:38;13.35;;;10.70;;
21868;SDS011;11099;41.564;23.296;2023-04-10T03:24:04;16.38;;;12.10;;
21868;SDS011;11099;41.564;23.296;2023-04-10T03:26:29;13.52;;;11.80;;
21868;SDS011;11099;41.564;23.296;2023-04-10T03:28:55;15.10;;;12.20;;
21868;SDS011;11099;41.564;23.296;2023-04-10T03:31:21;15.23;;;11.77;;
21868;SDS011;11099;41.564;23.296;2023-04-10T03:33:46;16.40;;;13.25;;
21868;SDS011;11099;41.564;23.296;2023-04-10T03:36:11;18.10;;;14.43;;
21868;SDS011;11099;41.564;23.296;2023-04-10T03:38:37;17.00;;;14.05;;
21868;SDS011;11099;41.564;23.296;2023-04-10T03:41:02;15.77;;;13.27;;
21868;SDS011;11099;41.564;23.296;2023-04-10T03:43:28;16.50;;;12.90;;
21868;SDS011;11099;41.564;23.296;2023-04-10T03:45:53;17.48;;;13.93;;
21868;SDS011;11099;41.564;23.296;2023-04-10T03:48:19;15.63;;;13.43;;
21868;SDS011;11099;41.564;23.296;2023-04-10T03:50:44;14.15;;;12.32;;
21868;SDS011;11099;41.564;23.296;2023-04-10T03:53:09;15.55;;;12.32;;
21868;SDS011;11099;41.564;23.296;2023-04-10T03:55:35;15.07;;;13.45;;
21868;SDS011;11099;41.564;23.296;2023-04-10T03:58:02;17.48;;;14.10;;
21868;SDS011;11099;41.564;23.296;2023-04-10T04:00:28;17.90;;;14.70;;
21868;SDS011;11099;41.564;23.296;2023-04-10T04:02:53;16.98;;;13.85;;
21868;SDS011;11099;41.564;23.296;2023-04-10T04:05:19;16.10;;;13.13;;
21868;SDS011;11099;41.564;23.296;2023-04-10T04:07:44;21.05;;;16.33;;
21868;SDS011;11099;41.564;23.296;2023-04-10T04:10:10;18.35;;;13.25;;
21868;SDS011;11099;41.564;23.296;2023-04-10T04:12:35;14.20;;;12.70;;
21868;SDS011;11099;41.564;23.296;2023-04-10T04:15:00;16.02;;;13.73;;
21868;SDS011;11099;41.564;23.296;2023-04-10T04:17:26;14.57;;;12.57;;
21868;SDS011;11099;41.564;23.296;2023-04-10T04:19:51;19.30;;;14.98;;
21868;SDS011;11099;41.564;23.296;2023-04-10T04:22:17;19.50;;;16.05;;
21868;SDS011;11099;41.564;23.296;2023-04-10T04:24:42;21.50;;;17.25;;
21868;SDS011;11099;41.564;23.296;2023-04-10T04:27:08;24.92;;;17.77;;
21868;SDS011;11099;41.564;23.296;2023-04-10T04:29:34;18.92;;;15.02;;
21868;SDS011;11099;41.564;23.296;2023-04-10T04:31:59;19.80;;;14.50;;
21868;SDS011;11099;41.564;23.296;2023-04-10T04:34:24;18.77;;;14.85;;
21868;SDS011;11099;41.564;23.296;2023-04-10T04:36:50;25.65;;;21.13;;
21868;SDS011;11099;41.564;23.296;2023-04-10T04:39:15;32.35;;;23.90;;
21868;SDS011;11099;41.564;23.296;2023-04-10T04:41:41;30.95;;;23.98;;
21868;SDS011;11099;41.564;23.296;2023-04-10T04:44:06;19.38;;;16.08;;
21868;SDS011;11099;41.564;23.296;2023-04-10T04:46:32;21.60;;;17.33;;
21868;SDS011;11099;41.564;23.296;2023-04-10T04:48:57;20.95;;;17.15;;
21868;SDS011;11099;41.564;23.296;2023-04-10T04:51:22;19.30;;;14.13;;
21868;SDS011;11099;41.564;23.296;2023-04-10T04:53:48;17.90;;;13.98;;
21868;SDS011;11099;41.564;23.296;2023-04-10T04:56:13;16.30;;;14.20;;
21868;SDS011;11099;41.564;23.296;2023-04-10T04:58:38;19.20;;;14.60;;
21868;SDS011;11099;41.564;23.296;2023-04-10T05:01:04;17.33;;;14.10;;
21868;SDS011;11099;41.564;23.296;2023-04-10T05:03:30;22.50;;;19.10;;
21868;SDS011;11099;41.564;23.296;2023-04-10T05:05:56;16.00;;;13.73;;
21868;SDS011;11099;41.564;23.296;2023-04-10T05:08:22;16.25;;;14.35;;
21868;SDS011;11099;41.564;23.296;2023-04-10T05:10:47;21.17;;;16.80;;
21868;SDS011;11099;41.564;23.296;2023-04-10T05:13:12;20.33;;;15.35;;
21868;SDS011;11099;41.564;23.296;2023-04-10T05:15:39;18.70;;;15.38;;
21868;SDS011;11099;41.564;23.296;2023-04-10T05:18:05;17.42;;;14.27;;
21868;SDS011;11099;41.564;23.296;2023-04-10T05:20:30;17.83;;;13.10;;
21868;SDS011;11099;41.564;23.296;2023-04-10T05:22:55;19.20;;;14.18;;
21868;SDS011;11099;41.564;23.296;2023-04-10T05:25:22;19.05;;;13.82;;
21868;SDS011;11099;41.564;23.296;2023-04-10T05:27:47;14.40;;;11.68;;
21868;SDS011;11099;41.564;23.296;2023-04-10T05:30:12;16.77;;;13.00;;
21868;SDS011;11099;41.564;23.296;2023-04-10T05:32:38;16.40;;;13.18;;
21868;SDS011;11099;41.564;23.296;2023-04-10T05:35:03;14.30;;;12.00;;
21868;SDS011;11099;41.564;23.296;2023-04-10T05:37:28;13.95;;;11.57;;
21868;SDS011;11099;41.564;23.296;2023-04-10T05:39:54;14.00;;;11.35;;
21868;SDS011;11099;41.564;23.296;2023-04-10T05:42:19;11.90;;;10.63;;
21868;SDS011;11099;41.564;23.296;2023-04-10T05:44:44;12.35;;;11.02;;
21868;SDS011;11099;41.564;23.296;2023-04-10T05:47:10;13.80;;;11.30;;
21868;SDS011;11099;41.564;23.296;2023-04-10T05:49:35;13.32;;;10.70;;
21868;SDS011;11099;41.564;23.296;2023-04-10T05:52:00;12.85;;;11.05;;
21868;SDS011;11099;41.564;23.296;2023-04-10T05:54:26;16.13;;;10.60;;
21868;SDS011;11099;41.564;23.296;2023-04-10T05:56:51;11.65;;;10.45;;
21868;SDS011;11099;41.564;23.296;2023-04-10T05:59:16;14.25;;;11.48;;
21868;SDS011;11099;41.564;23.296;2023-04-10T06:01:42;12.38;;;11.02;;
21868;SDS011;11099;41.564;23.296;2023-04-10T06:04:08;14.13;;;10.90;;
21868;SDS011;11099;41.564;23.296;2023-04-10T06:06:33;12.88;;;10.98;;
21868;SDS011;11099;41.564;23.296;2023-04-10T06:08:59;11.07;;;9.90;;
21868;SDS011;11099;41.564;23.296;2023-04-10T06:11:24;14.73;;;10.85;;
21868;SDS011;11099;41.564;23.296;2023-04-10T06:13:49;11.68;;;10.45;;
21868;SDS011;11099;41.564;23.296;2023-04-10T06:16:15;12.90;;;10.32;;
21868;SDS011;11099;41.564;23.296;2023-04-10T06:18:41;11.65;;;9.40;;
21868;SDS011;11099;41.564;23.296;2023-04-10T06:21:06;12.65;;;10.15;;
21868;SDS011;11099;41.564;23.296;2023-04-10T06:23:32;11.52;;;10.20;;
21868;SDS011;11099;41.564;23.296;2023-04-10T06:25:57;12.65;;;9.45;;
21868;SDS011;11099;41.564;23.296;2023-04-10T06:28:22;11.77;;;10.55;;
21868;SDS011;11099;41.564;23.296;2023-04-10T06:30:48;17.58;;;10.57;;
21868;SDS011;11099;41.564;23.296;2023-04-10T06:33:13;13.40;;;10.02;;
21868;SDS011;11099;41.564;23.296;2023-04-10T06:35:38;13.10;;;9.93;;
21868;SDS011;11099;41.564;23.296;2023-04-10T06:38:04;11.90;;;8.80;;
21868;SDS011;11099;41.564;23.296;2023-04-10T06:40:29;9.93;;;8.93;;
21868;SDS011;11099;41.564;23.296;2023-04-10T06:42:56;12.05;;;8.90;;
21868;SDS011;11099;41.564;23.296;2023-04-10T06:45:22;12.60;;;9.25;;
21868;SDS011;11099;41.564;23.296;2023-04-10T06:47:47;11.75;;;9.85;;
21868;SDS011;11099;41.564;23.296;2023-04-10T06:50:12;10.27;;;9.20;;
21868;SDS011;11099;41.564;23.296;2023-04-10T06:52:38;8.95;;;8.05;;
21868;SDS011;11099;41.564;23.296;2023-04-10T06:55:03;9.45;;;8.43;;
21868;SDS011;11099;41.564;23.296;2023-04-10T06:57:29;10.25;;;8.57;;
21868;SDS011;11099;41.564;23.296;2023-04-10T06:59:54;9.25;;;8.35;;
21868;SDS011;11099;41.564;23.296;2023-04-10T07:02:19;10.27;;;9.27;;
21868;SDS011;11099;41.564;23.296;2023-04-10T07:04:45;11.30;;;9.35;;
21868;SDS011;11099;41.564;23.296;2023-04-10T07:07:10;12.23;;;10.05;;
21868;SDS011;11099;41.564;23.296;2023-04-10T07:09:37;11.10;;;8.55;;
21868;SDS011;11099;41.564;23.296;2023-04-10T07:12:03;10.70;;;8.98;;
21868;SDS011;11099;41.564;23.296;2023-04-10T07:14:28;11.60;;;9.40;;
21868;SDS011;11099;41.564;23.296;2023-04-10T07:16:53;13.80;;;10.20;;
21868;SDS011;11099;41.564;23.296;2023-04-10T07:19:19;10.38;;;9.38;;
21868;SDS011;11099;41.564;23.296;2023-04-10T07:21:45;11.57;;;8.38;;
21868;SDS011;11099;41.564;23.296;2023-04-10T07:24:14;10.23;;;9.23;;
21868;SDS011;11099;41.564;23.296;2023-04-10T07:26:39;10.10;;;7.50;;
21868;SDS011;11099;41.564;23.296;2023-04-10T07:29:05;9.32;;;8.30;;
21868;SDS011;11099;41.564;23.296;2023-04-10T07:31:30;8.05;;;7.30;;
21868;SDS011;11099;41.564;23.296;2023-04-10T07:33:55;9.40;;;8.38;;
21868;SDS011;11099;41.564;23.296;2023-04-10T07:36:21;9.10;;;7.93;;
21868;SDS011;11099;41.564;23.296;2023-04-10T07:38:46;9.70;;;8.45;;
21868;SDS011;11099;41.564;23.296;2023-04-10T07:41:11;9.45;;;7.88;;
21868;SDS011;11099;41.564;23.296;2023-04-10T07:43:37;10.70;;;8.98;;
21868;SDS011;11099;41.564;23.296;2023-04-10T07:46:02;9.93;;;8.35;;
21868;SDS011;11099;41.564;23.296;2023-04-10T07:48:27;11.52;;;8.82;;
21868;SDS011;11099;41.564;23.296;2023-04-10T07:50:52;13.10;;;9.50;;
21868;SDS011;11099;41.564;23.296;2023-04-10T07:53:18;9.80;;;8.88;;
21868;SDS011;11099;41.564;23.296;2023-04-10T07:55:44;10.45;;;8.40;;
21868;SDS011;11099;41.564;23.296;2023-04-10T07:58:09;9.52;;;8.63;;
21868;SDS011;11099;41.564;23.296;2023-04-10T08:00:35;9.70;;;8.70;;
21868;SDS011;11099;41.564;23.296;2023-04-10T08:03:00;11.25;;;10.02;;
21868;SDS011;11099;41.564;23.296;2023-04-10T08:05:26;11.00;;;9.35;;
21868;SDS011;11099;41.564;23.296;2023-04-10T08:10:35;11.57;;;10.38;;
21868;SDS011;11099;41.564;23.296;2023-04-10T08:13:02;11.90;;;10.27;;
21868;SDS011;11099;41.564;23.296;2023-04-10T08:15:27;11.48;;;10.38;;
21868;SDS011;11099;41.564;23.296;2023-04-10T08:17:52;15.48;;;10.68;;
21868;SDS011;11099;41.564;23.296;2023-04-10T08:20:18;13.23;;;9.80;;
21868;SDS011;11099;41.564;23.296;2023-04-10T08:22:43;10.57;;;8.75;;
21868;SDS011;11099;41.564;23.296;2023-04-10T08:25:09;11.25;;;8.73;;
21868;SDS011;11099;41.564;23.296;2023-04-10T08:27:34;11.80;;;8.82;;
21868;SDS011;11099;41.564;23.296;2023-04-10T08:30:00;12.45;;;11.15;;
21868;SDS011;11099;41.564;23.296;2023-04-10T08:32:25;11.48;;;9.32;;
21868;SDS011;11099;41.564;23.296;2023-04-10T08:34:50;10.63;;;8.32;;
21868;SDS011;11099;41.564;23.296;2023-04-10T08:37:16;9.57;;;8.23;;
21868;SDS011;11099;41.564;23.296;2023-04-10T08:39:41;9.88;;;8.02;;
21868;SDS011;11099;41.564;23.296;2023-04-10T08:42:06;11.40;;;8.82;;
21868;SDS011;11099;41.564;23.296;2023-04-10T08:44:32;10.30;;;9.20;;
21868;SDS011;11099;41.564;23.296;2023-04-10T08:46:58;8.73;;;7.85;;
21868;SDS011;11099;41.564;23.296;2023-04-10T08:49:24;8.90;;;8.00;;
21868;SDS011;11099;41.564;23.296;2023-04-10T08:51:55;8.40;;;7.50;;
21868;SDS011;11099;41.564;23.296;2023-04-10T08:56:48;11.20;;;9.97;;
21868;SDS011;11099;41.564;23.296;2023-04-10T08:59:14;14.15;;;9.27;;
21868;SDS011;11099;41.564;23.296;2023-04-10T09:01:39;9.70;;;8.70;;
21868;SDS011;11099;41.564;23.296;2023-04-10T09:04:05;10.13;;;8.95;;
21868;SDS011;11099;41.564;23.296;2023-04-10T09:06:31;9.63;;;8.40;;
21868;SDS011;11099;41.564;23.296;2023-04-10T09:08:56;11.18;;;9.77;;
21868;SDS011;11099;41.564;23.296;2023-04-10T09:11:23;9.50;;;8.50;;
21868;SDS011;11099;41.564;23.296;2023-04-10T09:13:49;7.68;;;6.85;;
21868;SDS011;11099;41.564;23.296;2023-04-10T09:16:15;7.30;;;6.68;;
21868;SDS011;11099;41.564;23.296;2023-04-10T09:18:44;7.95;;;7.25;;
21868;SDS011;11099;41.564;23.296;2023-04-10T09:21:10;8.55;;;7.65;;
21868;SDS011;11099;41.564;23.296;2023-04-10T09:23:36;8.25;;;7.40;;
21868;SDS011;11099;41.564;23.296;2023-04-10T09:26:47;8.27;;;7.47;;
21868;SDS011;11099;41.564;23.296;2023-04-10T09:29:01;8.52;;;7.72;;
21868;SDS011;11099;41.564;23.296;2023-04-10T09:34:03;7.85;;;7.15;;
21868;SDS011;11099;41.564;23.296;2023-04-10T09:36:30;6.63;;;6.03;;
21868;SDS011;11099;41.564;23.296;2023-04-10T09:38:56;8.68;;;6.97;;
21868;SDS011;11099;41.564;23.296;2023-04-10T09:41:21;7.72;;;6.95;;
21868;SDS011;11099;41.564;23.296;2023-04-10T09:43:46;7.72;;;7.03;;
21868;SDS011;11099;41.564;23.296;2023-04-10T09:46:12;6.65;;;6.05;;
21868;SDS011;11099;41.564;23.296;2023-04-10T09:48:55;6.53;;;6.00;;
21868;SDS011;11099;41.564;23.296;2023-04-10T09:51:27;8.18;;;7.38;;
21868;SDS011;11099;41.564;23.296;2023-04-10T09:53:56;6.28;;;5.78;;
21868;SDS011;11099;41.564;23.296;2023-04-10T09:56:21;7.32;;;6.60;;
21868;SDS011;11099;41.564;23.296;2023-04-10T09:58:47;6.95;;;6.00;;
21868;SDS011;11099;41.564;23.296;2023-04-10T10:01:13;5.97;;;5.47;;
21868;SDS011;11099;41.564;23.296;2023-04-10T10:03:38;6.68;;;5.97;;
21868;SDS011;11099;41.564;23.296;2023-04-10T10:06:04;6.82;;;6.10;;
21868;SDS011;11099;41.564;23.296;2023-04-10T10:08:30;7.15;;;6.10;;
21868;SDS011;11099;41.564;23.296;2023-04-10T10:10:57;6.00;;;5.05;;
21868;SDS011;11099;41.564;23.296;2023-04-10T10:13:25;5.50;;;5.00;;
21868;SDS011;11099;41.564;23.296;2023-04-10T10:16:10;4.70;;;4.35;;
21868;SDS011;11099;41.564;23.296;2023-04-10T10:19:00;5.18;;;4.57;;
21868;SDS011;11099;41.564;23.296;2023-04-10T10:21:25;5.63;;;5.15;;
21868;SDS011;11099;41.564;23.296;2023-04-10T10:23:54;5.00;;;4.60;;
21868;SDS011;11099;41.564;23.296;2023-04-10T10:26:21;4.88;;;4.40;;
21868;SDS011;11099;41.564;23.296;2023-04-10T10:28:48;4.40;;;4.00;;
21868;SDS011;11099;41.564;23.296;2023-04-10T10:31:15;4.50;;;3.90;;
21868;SDS011;11099;41.564;23.296;2023-04-10T10:33:42;4.80;;;4.40;;
21868;SDS011;11099;41.564;23.296;2023-04-10T10:36:07;5.07;;;4.57;;
21868;SDS011;11099;41.564;23.296;2023-04-10T10:38:33;6.05;;;5.20;;
21868;SDS011;11099;41.564;23.296;2023-04-10T10:41:02;6.32;;;5.72;;
21868;SDS011;11099;41.564;23.296;2023-04-10T10:46:20;5.93;;;5.43;;
21868;SDS011;11099;41.564;23.296;2023-04-10T10:48:54;5.93;;;5.38;;
21868;SDS011;11099;41.564;23.296;2023-04-10T10:51:19;5.80;;;5.22;;
21868;SDS011;11099;41.564;23.296;2023-04-10T10:53:45;5.75;;;5.25;;
21868;SDS011;11099;41.564;23.296;2023-04-10T10:58:48;6.13;;;5.50;;
21868;SDS011;11099;41.564;23.296;2023-04-10T11:01:14;6.65;;;5.97;;
21868;SDS011;11099;41.564;23.296;2023-04-10T11:03:40;5.32;;;4.82;;
21868;SDS011;11099;41.564;23.296;2023-04-10T11:06:09;5.75;;;5.25;;
21868;SDS011;11099;41.564;23.296;2023-04-10T11:08:49;7.18;;;5.68;;
21868;SDS011;11099;41.564;23.296;2023-04-10T11:11:17;6.22;;;5.70;;
21868;SDS011;11099;41.564;23.296;2023-04-10T11:16:21;5.53;;;5.05;;
21868;SDS011;11099;41.564;23.296;2023-04-10T11:28:56;14.63;;;6.00;;
21868;SDS011;11099;41.564;23.296;2023-04-10T11:31:21;4.90;;;4.50;;
21868;SDS011;11099;41.564;23.296;2023-04-10T11:33:47;6.28;;;5.13;;
21868;SDS011;11099;41.564;23.296;2023-04-10T11:36:14;9.02;;;5.07;;
21868;SDS011;11099;41.564;23.296;2023-04-10T11:41:29;11.02;;;5.72;;
21868;SDS011;11099;41.564;23.296;2023-04-10T11:44:05;10.32;;;6.68;;
21868;SDS011;11099;41.564;23.296;2023-04-10T11:46:34;9.25;;;5.30;;
21868;SDS011;11099;41.564;23.296;2023-04-10T11:49:02;5.50;;;5.00;;
21868;SDS011;11099;41.564;23.296;2023-04-10T11:51:28;4.75;;;4.35;;
21868;SDS011;11099;41.564;23.296;2023-04-10T11:54:53;4.90;;;4.43;;
21868;SDS011;11099;41.564;23.296;2023-04-10T11:59:22;4.50;;;4.13;;
21868;SDS011;11099;41.564;23.296;2023-04-10T12:01:48;4.70;;;4.40;;
21868;SDS011;11099;41.564;23.296;2023-04-10T12:04:15;11.55;;;10.57;;
21868;SDS011;11099;41.564;23.296;2023-04-10T12:06:44;7.20;;;4.80;;
21868;SDS011;11099;41.564;23.296;2023-04-10T12:09:14;4.43;;;4.13;;
21868;SDS011;11099;41.564;23.296;2023-04-10T12:11:47;4.72;;;4.32;;
21868;SDS011;11099;41.564;23.296;2023-04-10T12:14:12;4.95;;;4.55;;
21868;SDS011;11099;41.564;23.296;2023-04-10T12:16:38;4.15;;;3.85;;
21868;SDS011;11099;41.564;23.296;2023-04-10T12:19:03;3.72;;;3.42;;
21868;SDS011;11099;41.564;23.296;2023-04-10T12:21:28;3.78;;;3.47;;
21868;SDS011;11099;41.564;23.296;2023-04-10T12:23:55;4.40;;;4.00;;
21868;SDS011;11099;41.564;23.296;2023-04-10T12:26:20;4.57;;;4.18;;
21868;SDS011;11099;41.564;23.296;2023-04-10T12:28:55;4.55;;;4.25;;
21868;SDS011;11099;41.564;23.296;2023-04-10T12:31:30;3.33;;;2.90;;
21868;SDS011;11099;41.564;23.296;2023-04-10T12:34:01;3.10;;;2.90;;
21868;SDS011;11099;41.564;23.296;2023-04-10T12:36:27;4.95;;;3.17;;
21868;SDS011;11099;41.564;23.296;2023-04-10T12:41:22;3.37;;;3.13;;
21868;SDS011;11099;41.564;23.296;2023-04-10T12:43:48;3.40;;;3.15;;
21868;SDS011;11099;41.564;23.296;2023-04-10T12:46:26;3.90;;;3.60;;
21868;SDS011;11099;41.564;23.296;2023-04-10T12:48:52;4.00;;;3.63;;
21868;SDS011;11099;41.564;23.296;2023-04-10T12:51:17;5.40;;;3.85;;
21868;SDS011;11099;41.564;23.296;2023-04-10T12:53:43;5.30;;;3.25;;
21868;SDS011;11099;41.564;23.296;2023-04-10T12:56:09;4.22;;;3.90;;
21868;SDS011;11099;41.564;23.296;2023-04-10T12:58:36;3.97;;;3.65;;
21868;SDS011;11099;41.564;23.296;2023-04-10T13:01:05;3.97;;;3.17;;
21868;SDS011;11099;41.564;23.296;2023-04-10T13:03:37;3.25;;;3.03;;
21868;SDS011;11099;41.564;23.296;2023-04-10T13:06:05;8.73;;;3.55;;
21868;SDS011;11099;41.564;23.296;2023-04-10T13:08:31;3.80;;;3.50;;
21868;SDS011;11099;41.564;23.296;2023-04-10T13:10:57;3.47;;;2.80;;
21868;SDS011;11099;41.564;23.296;2023-04-10T13:13:27;2.97;;;2.78;;
21868;SDS011;11099;41.564;23.296;2023-04-10T13:15:52;9.00;;;3.40;;
21868;SDS011;11099;41.564;23.296;2023-04-10T13:18:17;6.25;;;2.85;;
21868;SDS011;11099;41.564;23.296;2023-04-10T13:20:43;4.45;;;3.85;;
21868;SDS011;11099;41.564;23.296;2023-04-10T13:23:08;3.38;;;3.10;;
21868;SDS011;11099;41.564;23.296;2023-04-10T13:25:35;2.90;;;2.70;;
21868;SDS011;11099;41.564;23.296;2023-04-10T13:28:00;3.72;;;3.35;;
21868;SDS011;11099;41.564;23.296;2023-04-10T13:30:26;3.17;;;2.97;;
21868;SDS011;11099;41.564;23.296;2023-04-10T13:32:52;3.85;;;3.55;;
21868;SDS011;11099;41.564;23.296;2023-04-10T13:35:17;3.05;;;2.85;;
21868;SDS011;11099;41.564;23.296;2023-04-10T13:37:43;4.63;;;3.40;;
21868;SDS011;11099;41.564;23.296;2023-04-10T13:40:10;3.28;;;2.97;;
21868;SDS011;11099;41.564;23.296;2023-04-10T13:42:36;3.55;;;3.25;;
21868;SDS011;11099;41.564;23.296;2023-04-10T13:45:03;3.30;;;3.00;;
21868;SDS011;11099;41.564;23.296;2023-04-10T13:47:30;4.05;;;3.13;;
21868;SDS011;11099;41.564;23.296;2023-04-10T13:49:56;3.15;;;2.95;;
21868;SDS011;11099;41.564;23.296;2023-04-10T13:52:23;4.00;;;3.45;;
21868;SDS011;11099;41.564;23.296;2023-04-10T13:54:49;3.55;;;3.35;;
21868;SDS011;11099;41.564;23.296;2023-04-10T13:57:14;4.07;;;3.67;;
21868;SDS011;11099;41.564;23.296;2023-04-10T13:59:39;4.50;;;4.10;;
21868;SDS011;11099;41.564;23.296;2023-04-10T14:02:05;3.80;;;3.50;;
21868;SDS011;11099;41.564;23.296;2023-04-10T14:04:30;4.68;;;3.97;;
21868;SDS011;11099;41.564;23.296;2023-04-10T14:06:56;3.65;;;3.40;;
21868;SDS011;11099;41.564;23.296;2023-04-10T14:09:24;3.97;;;3.25;;
21868;SDS011;11099;41.564;23.296;2023-04-10T14:11:50;9.18;;;3.58;;
21868;SDS011;11099;41.564;23.296;2023-04-10T14:14:15;5.43;;;3.80;;
21868;SDS011;11099;41.564;23.296;2023-04-10T14:16:40;3.80;;;3.50;;
21868;SDS011;11099;41.564;23.296;2023-04-10T14:19:06;4.57;;;3.40;;
21868;SDS011;11099;41.564;23.296;2023-04-10T14:21:31;4.10;;;3.72;;
21868;SDS011;11099;41.564;23.296;2023-04-10T14:23:58;4.80;;;4.32;;
21868;SDS011;11099;41.564;23.296;2023-04-10T14:26:24;3.75;;;3.45;;
21868;SDS011;11099;41.564;23.296;2023-04-10T14:28:50;3.85;;;3.55;;
21868;SDS011;11099;41.564;23.296;2023-04-10T14:31:16;4.82;;;4.43;;
21868;SDS011;11099;41.564;23.296;2023-04-10T14:33:41;4.97;;;4.57;;
21868;SDS011;11099;41.564;23.296;2023-04-10T14:36:07;4.15;;;3.78;;
21868;SDS011;11099;41.564;23.296;2023-04-10T14:38:32;5.05;;;3.60;;
21868;SDS011;11099;41.564;23.296;2023-04-10T14:40:57;8.90;;;4.35;;
21868;SDS011;11099;41.564;23.296;2023-04-10T14:43:23;7.15;;;4.40;;
21868;SDS011;11099;41.564;23.296;2023-04-10T14:45:48;4.97;;;4.57;;
21868;SDS011;11099;41.564;23.296;2023-04-10T14:48:13;7.47;;;6.07;;
21868;SDS011;11099;41.564;23.296;2023-04-10T14:50:39;8.32;;;6.60;;
21868;SDS011;11099;41.564;23.296;2023-04-10T14:53:04;5.38;;;4.88;;
21868;SDS011;11099;41.564;23.296;2023-04-10T14:55:30;5.07;;;4.68;;
21868;SDS011;11099;41.564;23.296;2023-04-10T14:57:55;6.35;;;5.50;;
21868;SDS011;11099;41.564;23.296;2023-04-10T15:00:21;5.90;;;4.85;;
21868;SDS011;11099;41.564;23.296;2023-04-10T15:02:49;6.68;;;6.05;;
21868;SDS011;11099;41.564;23.296;2023-04-10T15:05:14;4.60;;;4.30;;
21868;SDS011;11099;41.564;23.296;2023-04-10T15:07:40;5.93;;;5.45;;
21868;SDS011;11099;41.564;23.296;2023-04-10T15:10:05;5.60;;;5.10;;